createdAt,value
2018-08-10T00:00:30.373Z,100341.44
2018-08-10T00:02:59.569Z,100350.69
2018-08-10T00:05:28.348Z,100346.07
2018-08-10T00:07:57.045Z,100347.95
2018-08-10T00:10:25.833Z,100356.34
2018-08-10T00:12:54.547Z,100357.70
2018-08-10T00:15:23.272Z,100352.30
2018-08-10T00:17:51.983Z,100355.58
2018-08-10T00:20:20.661Z,100354.55
2018-08-10T00:22:49.388Z,100352.86
2018-08-10T00:25:18.841Z,100350.68
2018-08-10T00:27:47.529Z,100357.09
2018-08-10T00:30:17.737Z,100362.19
2018-08-10T00:32:47.657Z,100356.30
2018-08-10T00:35:16.517Z,100361.18
2018-08-10T00:37:46.366Z,100351.92
2018-08-10T00:40:18.640Z,100352.97
2018-08-10T00:42:47.465Z,100354.78
2018-08-10T00:45:16.921Z,100355.98
2018-08-10T00:47:46.017Z,100353.72
2018-08-10T00:50:15.624Z,100356.56
2018-08-10T00:52:45.253Z,100359.80
2018-08-10T00:55:15.260Z,100357.03
2018-08-10T00:57:44.361Z,100365.59
2018-08-10T01:00:15.384Z,100356.83
2018-08-10T01:02:44.093Z,100360.45
2018-08-10T01:05:12.833Z,100356.17
2018-08-10T01:07:41.595Z,100354.00
2018-08-10T01:10:13.409Z,100355.72
2018-08-10T01:12:42.489Z,100354.73
2018-08-10T01:15:13.032Z,100354.11
2018-08-10T01:17:41.970Z,100350.77
2018-08-10T01:20:25.332Z,100350.03
2018-08-10T01:22:59.164Z,100350.22
2018-08-10T01:25:28.381Z,100356.75
2018-08-10T01:27:59.994Z,100359.42
2018-08-10T01:30:29.780Z,100357.66
2018-08-10T01:32:58.650Z,100356.61
2018-08-10T01:35:27.876Z,100352.00
2018-08-10T01:37:57.634Z,100348.55
2018-08-10T01:40:26.334Z,100349.77
2018-08-10T01:42:55.058Z,100348.50
2018-08-10T01:45:23.777Z,100344.97
2018-08-10T01:47:52.531Z,100347.53
2018-08-10T01:50:21.238Z,100343.33
2018-08-10T01:52:50.128Z,100344.45
2018-08-10T01:55:18.909Z,100352.59
2018-08-10T01:57:47.707Z,100354.03
2018-08-10T02:00:16.421Z,100362.89
2018-08-10T02:02:45.125Z,100360.03
2018-08-10T02:05:14.919Z,100355.83
2018-08-10T02:07:44.717Z,100354.55
2018-08-10T02:10:15.853Z,100355.86
2018-08-10T02:12:45.413Z,100358.38
2018-08-10T02:15:16.524Z,100357.11
2018-08-10T02:17:45.338Z,100355.72
2018-08-10T02:20:15.642Z,100355.58
2018-08-10T02:22:44.881Z,100355.80
2018-08-10T02:25:14.958Z,100362.16
2018-08-10T02:27:44.669Z,100363.79
2018-08-10T02:30:14.870Z,100372.65
2018-08-10T02:32:44.176Z,100366.98
2018-08-10T02:35:12.911Z,100366.53
2018-08-10T02:37:41.880Z,100373.11
2018-08-10T02:40:12.814Z,100368.87
2018-08-10T02:42:42.150Z,100380.33
2018-08-10T02:45:10.872Z,100383.06
2018-08-10T02:47:39.617Z,100385.46
2018-08-10T02:50:08.326Z,100387.01
2018-08-10T02:52:37.028Z,100396.70
2018-08-10T02:55:07.069Z,100394.09
2018-08-10T02:57:36.254Z,100398.86
2018-08-10T03:00:06.566Z,100399.64
2018-08-10T03:02:35.305Z,100403.30
2018-08-10T03:05:04.034Z,100405.03
2018-08-10T03:07:32.773Z,100403.08
2018-08-10T03:10:01.499Z,100406.14
2018-08-10T03:12:30.221Z,100405.91
2018-08-10T03:14:58.930Z,100407.90
2018-08-10T03:17:27.636Z,100410.52
2018-08-10T03:19:56.364Z,100418.86
2018-08-10T03:22:25.084Z,100414.58
2018-08-10T03:24:53.861Z,100419.39
2018-08-10T03:27:22.618Z,100418.17
2018-08-10T03:29:51.339Z,100415.52
2018-08-10T03:32:20.137Z,100424.78
2018-08-10T03:34:49.049Z,100426.63
2018-08-10T03:37:17.886Z,100429.38
2018-08-10T03:39:46.606Z,100428.83
2018-08-10T03:42:15.342Z,100437.95
2018-08-10T03:44:44.114Z,100433.23
2018-08-10T03:47:12.826Z,100431.81
2018-08-10T03:49:41.584Z,100440.31
2018-08-10T03:52:10.320Z,100436.16
2018-08-10T03:54:39.081Z,100437.88
2018-08-10T03:57:08.225Z,100442.12
2018-08-10T03:59:36.939Z,100445.73
2018-08-10T04:02:05.645Z,100441.41
2018-08-10T04:04:34.346Z,100442.55
2018-08-10T04:07:03.032Z,100442.12
2018-08-10T04:09:31.727Z,100445.35
2018-08-10T04:12:00.441Z,100443.36
2018-08-10T04:14:29.128Z,100454.26
2018-08-10T04:16:57.877Z,100451.47
2018-08-10T04:19:26.588Z,100457.27
2018-08-10T04:21:55.298Z,100460.27
2018-08-10T04:24:23.981Z,100466.45
2018-08-10T04:26:52.874Z,100465.50
2018-08-10T04:29:21.590Z,100469.57
2018-08-10T04:31:50.332Z,100466.03
2018-08-10T04:34:19.118Z,100460.34
2018-08-10T04:36:47.845Z,100459.95
2018-08-10T04:39:16.534Z,100463.05
2018-08-10T04:41:45.237Z,100464.56
2018-08-10T04:44:13.942Z,100468.44
2018-08-10T04:46:42.636Z,100473.51
2018-08-10T04:49:11.398Z,100473.30
2018-08-10T04:51:40.107Z,100478.58
2018-08-10T04:54:08.791Z,100480.56
2018-08-10T04:56:37.496Z,100478.01
2018-08-10T04:59:06.206Z,100491.32
2018-08-10T05:01:34.922Z,100488.90
2018-08-10T05:04:03.618Z,100485.77
2018-08-10T05:06:32.319Z,100492.94
2018-08-10T05:09:01.129Z,100496.41
2018-08-10T05:11:29.865Z,100503.53
2018-08-10T05:13:59.018Z,100508.80
2018-08-10T05:16:27.769Z,100509.71
2018-08-10T05:18:56.562Z,100511.27
2018-08-10T05:21:25.281Z,100501.53
2018-08-10T05:23:54.036Z,100499.91
2018-08-10T05:26:22.729Z,100503.83
2018-08-10T05:28:51.445Z,100501.75
2018-08-10T05:31:20.225Z,100495.59
2018-08-10T05:33:49.066Z,100497.58
2018-08-10T05:36:17.898Z,100491.81
2018-08-10T05:38:46.601Z,100491.96
2018-08-10T05:41:15.309Z,100497.81
2018-08-10T05:43:44.042Z,100496.78
2018-08-10T05:46:12.840Z,100496.57
2018-08-10T05:48:42.334Z,100499.61
2018-08-10T05:51:14.327Z,100502.95
2018-08-10T05:53:43.228Z,100498.45
2018-08-10T05:56:12.707Z,100502.14
2018-08-10T05:58:41.398Z,100499.39
2018-08-10T06:01:10.101Z,100496.35
2018-08-10T06:03:38.852Z,100497.25
2018-08-10T06:06:07.561Z,100497.20
2018-08-10T06:08:36.273Z,100496.20
2018-08-10T06:11:05.274Z,100492.20
2018-08-10T06:13:34.081Z,100490.40
2018-08-10T06:16:02.805Z,100496.44
2018-08-10T06:18:31.890Z,100494.81
2018-08-10T06:21:00.615Z,100494.98
2018-08-10T06:23:29.405Z,100496.32
2018-08-10T06:25:58.186Z,100492.98
2018-08-10T06:28:27.048Z,100494.46
2018-08-10T06:30:55.794Z,100491.41
2018-08-10T06:33:24.541Z,100499.45
2018-08-10T06:35:53.322Z,100494.56
2018-08-10T06:38:22.048Z,100494.42
2018-08-10T06:40:52.033Z,100500.52
2018-08-10T06:43:20.988Z,100505.28
2018-08-10T06:45:49.773Z,100502.77
2018-08-10T06:48:18.501Z,100499.13
2018-08-10T06:50:47.282Z,100500.80
2018-08-10T06:53:18.138Z,100499.59
2018-08-10T06:55:52.950Z,100501.91
2018-08-10T06:58:21.746Z,100504.59
2018-08-10T07:00:50.526Z,100501.69
2018-08-10T07:03:19.247Z,100496.78
2018-08-10T07:05:47.959Z,100506.06
2018-08-10T07:08:16.710Z,100502.42
2018-08-10T07:10:45.480Z,100511.27
2018-08-10T07:13:14.338Z,100508.73
2018-08-10T07:15:42.977Z,100505.77
2018-08-10T07:18:11.698Z,100498.27
2018-08-10T07:20:40.468Z,100511.59
2018-08-10T07:23:09.247Z,100512.33
2018-08-10T07:25:37.976Z,100504.11
2018-08-10T07:28:06.718Z,100504.61
2018-08-10T07:30:35.525Z,100512.83
2018-08-10T07:33:04.328Z,100516.99
2018-08-10T07:35:33.103Z,100517.66
2018-08-10T07:38:01.915Z,100522.30
2018-08-10T07:40:30.666Z,100514.66
2018-08-10T07:42:59.406Z,100510.36
2018-08-10T07:45:28.151Z,100511.23
2018-08-10T07:47:56.906Z,100498.39
2018-08-10T07:50:25.636Z,100511.80
2018-08-10T07:52:54.364Z,100501.42
2018-08-10T07:55:23.080Z,100505.69
2018-08-10T07:57:51.795Z,100505.11
2018-08-10T08:00:20.584Z,100503.85
2018-08-10T08:02:49.311Z,100496.42
2018-08-10T08:05:18.158Z,100498.25
2018-08-10T08:07:46.878Z,100499.66
2018-08-10T08:10:15.635Z,100497.80
2018-08-10T08:12:44.414Z,100497.18
2018-08-10T08:15:13.308Z,100488.75
2018-08-10T08:17:42.049Z,100485.20
2018-08-10T08:20:10.822Z,100492.47
2018-08-10T08:23:07.744Z,100481.04
2018-08-10T08:25:36.490Z,100485.75
2018-08-10T08:28:05.231Z,100484.08
2018-08-10T08:30:33.958Z,100477.53
2018-08-10T08:33:03.649Z,100483.40
2018-08-10T08:35:32.378Z,100485.53
2018-08-10T08:38:12.276Z,100480.86
2018-08-10T08:40:41.005Z,100477.87
2018-08-10T08:43:09.775Z,100483.34
2018-08-10T08:45:52.477Z,100477.89
2018-08-10T08:48:24.196Z,100487.28
2018-08-10T08:50:56.626Z,100495.84
2018-08-10T08:53:30.435Z,100494.41
2018-08-10T08:56:01.757Z,100501.37
2018-08-10T08:58:31.019Z,100492.95
2018-08-10T09:46:48.107Z,100469.17
2018-08-10T09:49:16.862Z,100471.28
2018-08-10T09:51:45.653Z,100469.39
2018-08-10T09:54:14.391Z,100472.70
2018-08-10T09:56:43.465Z,100464.85
2018-08-10T09:59:12.191Z,100460.55
2018-08-10T10:01:47.952Z,100455.31
2018-08-10T10:04:17.255Z,100452.81
2018-08-10T10:06:46.001Z,100455.44
2018-08-10T10:09:14.787Z,100451.51
2018-08-10T10:11:43.527Z,100446.44
2018-08-10T10:14:12.325Z,100451.94
2018-08-10T10:16:41.245Z,100449.04
2018-08-10T10:31:46.864Z,100432.91
2018-08-10T10:50:29.862Z,100412.55
2018-08-10T10:52:58.740Z,100413.58
2018-08-10T10:55:27.577Z,100416.44
2018-08-10T10:57:56.290Z,100416.37
2018-08-10T11:00:25.039Z,100406.07
2018-08-10T11:02:53.770Z,100408.77
2018-08-10T11:05:22.583Z,100400.27
2018-08-10T11:07:51.401Z,100400.08
2018-08-10T11:10:20.557Z,100394.87
2018-08-10T11:12:49.359Z,100389.42
2018-08-10T11:15:18.092Z,100387.78
2018-08-10T11:17:46.923Z,100397.21
2018-08-10T11:20:15.749Z,100396.25
2018-08-10T11:22:44.776Z,100387.54
2018-08-10T11:25:14.780Z,100389.01
2018-08-10T11:27:44.370Z,100386.11
2018-08-10T11:30:13.400Z,100386.63
2018-08-10T11:32:42.118Z,100392.34
2018-08-10T11:35:11.183Z,100390.20
2018-08-10T11:37:40.013Z,100392.70
2018-08-10T11:40:12.286Z,100390.77
2018-08-10T11:42:41.250Z,100389.70
2018-08-10T11:45:11.961Z,100391.09
2018-08-10T11:47:40.779Z,100389.53
2018-08-10T11:50:09.693Z,100391.88
2018-08-10T11:52:38.657Z,100395.90
2018-08-10T11:55:08.650Z,100385.47
2018-08-10T11:57:37.379Z,100389.92
2018-08-10T12:00:07.577Z,100374.24
2018-08-10T12:02:36.405Z,100377.06
2018-08-10T12:05:06.362Z,100376.00
2018-08-10T12:07:35.103Z,100376.25
2018-08-10T12:10:03.987Z,100372.92
2018-08-10T12:12:32.818Z,100373.36
2018-08-10T12:15:01.515Z,100371.06
2018-08-10T12:17:30.435Z,100365.41
2018-08-10T12:19:59.179Z,100367.75
2018-08-10T12:22:27.928Z,100368.26
2018-08-10T12:24:56.711Z,100369.83
2018-08-10T12:27:25.467Z,100363.05
2018-08-10T12:29:54.267Z,100352.19
2018-08-10T12:32:23.046Z,100355.37
2018-08-10T12:34:51.781Z,100339.75
2018-08-10T12:37:20.511Z,100347.94
2018-08-10T12:39:49.268Z,100342.55
2018-08-10T12:42:18.151Z,100350.67
2018-08-10T12:44:46.901Z,100348.96
2018-08-10T12:47:15.689Z,100341.66
2018-08-10T12:49:44.466Z,100334.20
2018-08-10T12:52:13.228Z,100332.50
2018-08-10T12:54:41.961Z,100330.02
2018-08-10T12:57:10.767Z,100326.45
2018-08-10T12:59:39.497Z,100329.73
2018-08-10T13:02:08.390Z,100324.94
2018-08-10T13:04:37.169Z,100321.98
2018-08-10T13:07:06.017Z,100320.84
2018-08-10T13:09:37.174Z,100313.78
2018-08-10T13:12:09.412Z,100315.27
2018-08-10T13:14:42.555Z,100314.02
2018-08-10T13:17:16.917Z,100314.37
2018-08-10T13:19:51.609Z,100309.95
2018-08-10T13:22:25.570Z,100321.66
2018-08-10T13:24:54.424Z,100313.86
2018-08-10T13:27:23.202Z,100314.39
2018-08-10T13:29:51.961Z,100317.10
2018-08-10T13:32:20.705Z,100312.94
2018-08-10T13:34:49.472Z,100307.81
2018-08-10T13:37:18.229Z,100315.55
2018-08-10T13:39:47.126Z,100309.25
2018-08-10T13:42:15.960Z,100301.17
2018-08-10T13:44:44.705Z,100309.58
2018-08-10T13:47:13.453Z,100302.19
2018-08-10T13:49:42.431Z,100310.12
2018-08-10T13:52:11.262Z,100311.52
2018-08-10T13:54:40.050Z,100300.95
2018-08-10T13:57:08.792Z,100307.81
2018-08-10T13:59:37.766Z,100305.36
2018-08-10T14:02:06.561Z,100306.78
2018-08-10T14:04:35.407Z,100301.81
2018-08-10T14:07:04.192Z,100302.45
2018-08-10T14:09:32.941Z,100300.28
2018-08-10T14:12:01.693Z,100302.59
2018-08-10T14:14:30.407Z,100294.89
2018-08-10T14:16:59.163Z,100307.87
2018-08-10T14:19:27.918Z,100300.69
2018-08-10T14:21:56.872Z,100294.72
2018-08-10T14:24:25.762Z,100297.72
2018-08-10T14:26:54.507Z,100291.74
2018-08-10T14:29:23.260Z,100287.53
2018-08-10T14:31:51.973Z,100298.36
2018-08-10T14:34:20.689Z,100285.41
2018-08-10T14:36:49.435Z,100289.88
2018-08-10T14:39:18.167Z,100293.73
2018-08-10T14:41:46.871Z,100299.23
2018-08-10T14:44:15.904Z,100298.55
2018-08-10T14:46:44.659Z,100299.30
2018-08-10T14:49:13.407Z,100303.26
2018-08-10T14:51:42.193Z,100297.02
2018-08-10T14:54:10.967Z,100301.35
2018-08-10T14:56:39.753Z,100309.86
2018-08-10T14:59:08.473Z,100306.23
2018-08-10T15:01:37.191Z,100307.30
2018-08-10T15:04:05.934Z,100302.48
2018-08-10T15:06:34.704Z,100301.75
2018-08-10T15:09:04.771Z,100304.61
2018-08-10T15:11:33.624Z,100298.50
2018-08-10T15:14:02.370Z,100300.91
2018-08-10T15:16:31.097Z,100297.06
2018-08-10T15:18:59.821Z,100299.22
2018-08-10T15:21:28.737Z,100293.36
2018-08-10T15:23:57.713Z,100287.73
2018-08-10T15:26:26.483Z,100285.53
2018-08-10T15:28:55.228Z,100289.11
2018-08-10T15:31:23.972Z,100288.02
2018-08-10T15:33:53.113Z,100284.92
2018-08-10T15:36:21.842Z,100286.19
2018-08-10T15:38:51.499Z,100280.08
2018-08-10T15:41:20.264Z,100276.78
2018-08-10T15:43:49.062Z,100278.43
2018-08-10T15:46:17.835Z,100281.91
2018-08-10T15:48:46.762Z,100285.78
2018-08-10T15:51:15.485Z,100284.51
2018-08-10T15:53:48.240Z,100283.94
2018-08-10T15:56:21.186Z,100281.85
2018-08-10T15:58:55.432Z,100290.56
2018-08-10T16:01:28.459Z,100293.38
2018-08-10T16:04:01.370Z,100297.63
2018-08-10T16:06:34.472Z,100290.34
2018-08-10T16:09:10.181Z,100299.22
2018-08-10T16:11:43.613Z,100297.36
2018-08-10T16:14:15.694Z,100293.16
2018-08-10T16:16:49.585Z,100297.89
2018-08-10T16:19:18.572Z,100297.86
2018-08-10T16:21:47.382Z,100293.88
2018-08-10T16:24:16.106Z,100292.93
2018-08-10T16:26:44.811Z,100293.70
2018-08-10T16:29:13.508Z,100295.41
2018-08-10T16:31:42.233Z,100305.54
2018-08-10T16:34:10.946Z,100300.79
2018-08-10T16:36:39.683Z,100302.37
2018-08-10T16:39:10.476Z,100298.06
2018-08-10T16:41:39.206Z,100296.12
2018-08-10T16:44:08.160Z,100301.19
2018-08-10T16:46:36.861Z,100302.29
2018-08-10T16:49:05.703Z,100303.44
2018-08-10T16:51:34.437Z,100306.39
2018-08-10T16:54:03.176Z,100301.16
2018-08-10T16:56:32.060Z,100301.37
2018-08-10T16:59:00.814Z,100306.59
2018-08-10T17:01:29.574Z,100302.69
2018-08-10T17:03:58.309Z,100311.28
2018-08-10T17:06:27.126Z,100314.53
2018-08-10T17:08:55.903Z,100317.91
2018-08-10T17:11:24.606Z,100322.37
2018-08-10T17:13:53.613Z,100322.36
2018-08-10T17:16:22.397Z,100317.77
2018-08-10T17:18:51.132Z,100318.78
2018-08-10T17:21:19.869Z,100321.18
2018-08-10T17:23:48.604Z,100318.41
2018-08-10T17:26:17.342Z,100325.14
2018-08-10T17:28:46.074Z,100332.21
2018-08-10T17:31:14.795Z,100328.03
2018-08-10T17:33:43.632Z,100337.50
2018-08-10T17:36:12.355Z,100334.00
2018-08-10T17:38:41.120Z,100340.20
2018-08-10T17:41:09.845Z,100340.57
2018-08-10T17:43:38.580Z,100342.55
2018-08-10T17:46:07.342Z,100340.48
2018-08-10T17:48:36.071Z,100346.32
2018-08-10T17:51:04.823Z,100350.16
2018-08-10T17:53:33.558Z,100353.56
2018-08-10T17:56:02.277Z,100356.05
2018-08-10T17:58:31.033Z,100357.23
2018-08-10T18:00:59.773Z,100357.80
2018-08-10T18:03:28.780Z,100360.06
2018-08-10T18:05:57.485Z,100359.33
2018-08-10T18:08:26.230Z,100363.78
2018-08-10T18:10:54.960Z,100362.20
2018-08-10T18:13:23.692Z,100364.75
2018-08-10T18:15:52.507Z,100371.10
2018-08-10T18:18:21.381Z,100379.70
2018-08-10T18:20:50.188Z,100382.44
2018-08-10T18:23:19.005Z,100384.38
2018-08-10T18:25:47.751Z,100388.78
2018-08-10T18:28:16.567Z,100392.09
2018-08-10T18:30:45.345Z,100402.77
2018-08-10T18:33:14.141Z,100398.38
2018-08-10T18:35:42.893Z,100405.53
2018-08-10T18:38:11.638Z,100401.40
2018-08-10T18:40:40.516Z,100403.66
2018-08-10T18:43:09.256Z,100401.48
2018-08-10T18:45:38.025Z,100402.32
2018-08-10T18:48:06.863Z,100409.18
2018-08-10T18:50:35.617Z,100411.12
2018-08-10T18:53:04.358Z,100411.40
2018-08-10T18:55:33.145Z,100414.15
2018-08-10T18:58:01.886Z,100412.52
2018-08-10T19:00:30.668Z,100409.83
2018-08-10T19:02:59.444Z,100413.71
2018-08-10T19:05:28.214Z,100419.72
2018-08-10T19:07:56.997Z,100421.92
2018-08-10T19:10:27.921Z,100423.56
2018-08-10T19:12:56.680Z,100427.41
2018-08-10T19:15:25.437Z,100427.45
2018-08-10T19:17:54.201Z,100420.36
2018-08-10T19:20:22.997Z,100420.37
2018-08-10T19:22:51.767Z,100421.20
2018-08-10T19:25:20.596Z,100429.92
2018-08-10T19:27:49.375Z,100428.84
2018-08-10T19:30:21.659Z,100424.22
2018-08-10T19:32:50.521Z,100428.86
2018-08-10T19:35:19.572Z,100428.30
2018-08-10T19:37:48.589Z,100426.91
2018-08-10T19:40:18.621Z,100424.22
2018-08-10T19:42:47.413Z,100424.48
2018-08-10T19:45:17.211Z,100430.77
2018-08-10T19:47:46.014Z,100426.94
2018-08-10T19:50:16.082Z,100435.41
2018-08-10T19:52:44.856Z,100436.22
2018-08-10T19:55:15.407Z,100432.41
2018-08-10T19:57:44.318Z,100440.59
2018-08-10T20:00:15.475Z,100449.58
2018-08-10T20:02:46.792Z,100444.69
2018-08-10T20:05:15.622Z,100442.51
2018-08-10T20:07:44.429Z,100452.32
2018-08-10T20:10:13.889Z,100452.06
2018-08-10T20:12:42.757Z,100447.14
2018-08-10T20:15:13.115Z,100449.59
2018-08-10T20:17:42.485Z,100455.06
2018-08-10T20:20:13.100Z,100447.97
2018-08-10T20:22:41.957Z,100445.52
2018-08-10T20:25:11.504Z,100445.75
2018-08-10T20:27:40.275Z,100447.12
2018-08-10T20:30:13.126Z,100445.75
2018-08-10T20:32:41.981Z,100452.28
2018-08-10T20:35:14.460Z,100456.33
2018-08-10T20:37:43.563Z,100456.86
2018-08-10T20:40:14.316Z,100460.96
2018-08-10T20:42:43.135Z,100456.05
2018-08-10T20:45:11.968Z,100460.11
2018-08-10T20:47:40.783Z,100455.46
2018-08-10T20:50:12.416Z,100456.81
2018-08-10T20:52:41.434Z,100460.67
2018-08-10T20:55:10.334Z,100452.75
2018-08-10T20:57:39.128Z,100459.50
2018-08-10T21:00:08.851Z,100457.32
2018-08-10T21:02:37.595Z,100455.36
2018-08-10T21:05:06.667Z,100454.59
2018-08-10T21:07:35.559Z,100459.14
2018-08-10T21:10:04.423Z,100452.00
2018-08-10T21:12:33.210Z,100464.16
2018-08-10T21:15:01.961Z,100463.30
2018-08-10T21:17:30.768Z,100468.44
2018-08-10T21:19:59.600Z,100469.20
2018-08-10T21:22:28.376Z,100473.51
2018-08-10T21:24:57.143Z,100471.11
2018-08-10T21:27:26.291Z,100470.38
2018-08-10T21:29:55.109Z,100474.06
2018-08-10T21:32:23.861Z,100472.09
2018-08-10T21:34:52.566Z,100471.58
2018-08-10T21:37:21.309Z,100464.37
2018-08-10T21:39:50.020Z,100459.17
2018-08-10T21:42:19.222Z,100457.62
2018-08-10T21:44:48.047Z,100463.91
2018-08-10T21:47:16.781Z,100465.58
2018-08-10T21:49:45.482Z,100472.39
2018-08-10T21:52:14.341Z,100464.70
2018-08-10T21:54:43.028Z,100463.67
2018-08-10T21:57:11.722Z,100461.39
2018-08-10T21:59:40.425Z,100463.57
2018-08-10T22:02:10.673Z,100457.81
2018-08-10T22:04:39.392Z,100460.53
2018-08-10T22:07:08.184Z,100461.22
2018-08-10T22:09:36.958Z,100460.03
2018-08-10T22:12:05.677Z,100459.38
2018-08-10T22:14:39.828Z,100460.75
2018-08-10T22:17:13.714Z,100462.22
2018-08-10T22:19:42.481Z,100461.57
2018-08-10T22:22:11.242Z,100462.70
2018-08-10T22:24:40.468Z,100463.45
2018-08-10T22:27:09.473Z,100463.67
2018-08-10T22:29:38.997Z,100465.31
2018-08-10T22:32:08.082Z,100466.51
2018-08-10T22:34:37.610Z,100469.92
2018-08-10T22:37:06.810Z,100471.23
2018-08-10T22:39:35.539Z,100469.94
2018-08-10T22:42:04.381Z,100460.42
2018-08-10T22:44:33.341Z,100461.57
2018-08-10T22:47:02.132Z,100457.00
2018-08-10T22:49:30.974Z,100463.53
2018-08-10T22:52:00.334Z,100469.39
2018-08-10T22:54:29.045Z,100467.77
2018-08-10T22:56:57.804Z,100467.54
2018-08-10T22:59:26.535Z,100468.86
2018-08-10T23:01:55.264Z,100468.03
2018-08-10T23:04:23.995Z,100468.84
2018-08-10T23:06:52.754Z,100471.44
2018-08-10T23:09:21.527Z,100464.97
2018-08-10T23:11:50.337Z,100462.14
2018-08-10T23:14:19.107Z,100455.67
2018-08-10T23:16:47.829Z,100455.40
2018-08-10T23:19:16.509Z,100452.90
2018-08-10T23:21:45.244Z,100451.30
2018-08-10T23:24:14.074Z,100453.64
2018-08-10T23:26:42.774Z,100452.41
2018-08-10T23:29:11.587Z,100447.83
2018-08-10T23:31:40.297Z,100440.63
2018-08-10T23:34:09.045Z,100446.19
2018-08-10T23:36:37.918Z,100451.15
2018-08-10T23:39:09.382Z,100451.16
2018-08-10T23:41:38.119Z,100452.78
2018-08-10T23:44:06.893Z,100452.38
2018-08-10T23:46:35.585Z,100454.75
2018-08-10T23:49:04.344Z,100456.86
2018-08-10T23:51:33.359Z,100452.00
2018-08-10T23:54:02.186Z,100446.05
2018-08-10T23:56:30.922Z,100445.30
2018-08-10T23:58:59.818Z,100441.24
